Time;durP1;ratioP1;P1;durP2;ratioP2;P2;SDS_P1;SDS_P2;PMS_P1;PMS_P2;Temp;Humidity;BMP_temperature;BMP_pressure;BME280_temperature;BME280_humidity;BME280_pressure;Samples;Min_cycle;Max_cycle;Signal;HPM_P1;HPM_P2
2024/01/29 00:00:02;;;;;;;11.95;7.80;;;;;;;3.82;96.76;102407.41;4992058;28;20030;-79
2024/01/29 00:02:30;;;;;;;12.27;8.00;;;;;;;3.81;96.64;102408.31;4990738;28;20022;-79
2024/01/29 00:04:55;;;;;;;10.38;7.90;;;;;;;3.81;97.28;102413.50;4991217;28;20037;-78
2024/01/29 00:07:21;;;;;;;9.88;7.47;;;;;;;3.80;96.92;102403.97;4989100;28;20447;-79
2024/01/29 00:09:47;;;;;;;8.77;7.60;;;;;;;3.78;96.76;102401.41;4991072;28;20463;-80
2024/01/29 00:12:12;;;;;;;10.20;8.05;;;;;;;3.78;97.06;102406.63;4988037;28;20038;-79
2024/01/29 00:14:37;;;;;;;11.95;8.05;;;;;;;3.77;97.69;102404.06;4988464;28;20542;-79
2024/01/29 00:17:03;;;;;;;10.05;8.40;;;;;;;3.77;97.79;102410.13;4989611;28;20438;-79
2024/01/29 00:19:28;;;;;;;10.00;7.43;;;;;;;3.75;96.89;102411.91;4973789;28;20085;-80
2024/01/29 00:21:54;;;;;;;8.77;7.72;;;;;;;3.71;97.20;102412.84;4990467;28;20018;-79
2024/01/29 00:24:19;;;;;;;11.00;8.15;;;;;;;3.70;96.97;102410.28;4990072;28;20034;-80
2024/01/29 00:26:44;;;;;;;8.88;7.45;;;;;;;3.70;97.85;102403.31;4990646;28;20026;-79
2024/01/29 00:29:10;;;;;;;9.52;7.70;;;;;;;3.68;97.37;102405.09;4987989;28;20030;-79
2024/01/29 00:31:35;;;;;;;11.05;8.35;;;;;;;3.66;97.36;102406.88;4971709;28;20042;-79
2024/01/29 00:34:00;;;;;;;10.43;7.93;;;;;;;3.64;97.37;102400.84;4980852;28;20125;-79
2024/01/29 00:36:26;;;;;;;10.32;7.90;;;;;;;3.60;97.42;102401.81;4986485;28;20034;-80
2024/01/29 00:38:51;;;;;;;9.23;8.32;;;;;;;3.57;98.20;102401.84;4984501;28;20031;-80
2024/01/29 00:41:20;;;;;;;10.65;7.97;;;;;;;3.57;98.07;102394.03;4983634;28;20018;-79
2024/01/29 00:43:45;;;;;;;9.88;7.57;;;;;;;3.55;99.14;102393.19;4982006;28;20014;-79
2024/01/29 00:46:10;;;;;;;10.07;8.23;;;;;;;3.54;99.38;102390.63;4984396;28;20191;-79
2024/01/29 00:48:36;;;;;;;12.98;8.50;;;;;;;3.51;99.25;102396.75;4986524;28;20030;-79
2024/01/29 00:51:01;;;;;;;10.25;8.63;;;;;;;3.51;99.76;102401.97;4986231;28;20042;-80
2024/01/29 00:53:27;;;;;;;10.30;8.38;;;;;;;3.50;99.55;102397.66;4988406;28;20026;-79
2024/01/29 00:55:53;;;;;;;10.50;7.85;;;;;;;3.51;99.71;102386.34;4989467;28;20100;-79
2024/01/29 00:58:19;;;;;;;11.45;8.68;;;;;;;3.45;99.94;102397.75;4991437;28;20026;-79
2024/01/29 01:00:45;;;;;;;8.85;7.85;;;;;;;3.46;100.00;102398.59;4991864;28;20042;-79
2024/01/29 01:03:10;;;;;;;10.80;8.55;;;;;;;3.40;100.00;102399.56;4992379;28;20510;-81
2024/01/29 01:05:36;;;;;;;10.23;8.38;;;;;;;3.42;100.00;102412.56;4987546;28;20022;-80
2024/01/29 01:08:03;;;;;;;9.63;7.85;;;;;;;3.37;100.00;102417.00;4973851;28;20023;-80
2024/01/29 01:10:29;;;;;;;10.45;8.23;;;;;;;3.32;100.00;102416.22;4992947;28;20031;-78
2024/01/29 01:12:54;;;;;;;10.82;8.40;;;;;;;3.30;100.00;102412.78;4994219;28;20470;-78
2024/01/29 01:15:19;;;;;;;9.20;8.10;;;;;;;3.28;100.00;102422.38;4993771;28;20049;-78
2024/01/29 01:17:49;;;;;;;10.90;8.07;;;;;;;3.25;100.00;102420.69;4991533;28;20506;-78
2024/01/29 01:20:15;;;;;;;10.13;8.48;;;;;;;3.21;100.00;102418.16;4990152;28;20065;-78
2024/01/29 01:22:40;;;;;;;13.93;8.45;;;;;;;3.18;100.00;102423.41;4993766;28;20499;-78
2024/01/29 01:25:06;;;;;;;9.43;8.02;;;;;;;3.17;100.00;102421.69;4989644;28;20809;-79
2024/01/29 01:27:32;;;;;;;13.13;8.50;;;;;;;3.08;100.00;102423.56;4992982;28;20109;-78
2024/01/29 01:29:58;;;;;;;9.50;7.90;;;;;;;3.13;100.00;102426.94;4991535;28;20027;-79
2024/01/29 01:32:23;;;;;;;10.05;8.45;;;;;;;3.06;100.00;102424.47;4973069;28;20065;-80
2024/01/29 01:34:49;;;;;;;9.65;8.43;;;;;;;3.07;100.00;102428.78;4989833;28;20087;-78
2024/01/29 01:37:14;;;;;;;10.40;7.72;;;;;;;3.03;100.00;102430.59;4989850;28;20034;-80
2024/01/29 01:39:40;;;;;;;9.32;7.88;;;;;;;3.05;100.00;102420.16;4993239;28;20030;-79
2024/01/29 01:42:05;;;;;;;9.45;8.00;;;;;;;3.00;100.00;102422.84;4992430;28;20027;-79
2024/01/29 01:44:31;;;;;;;9.20;8.20;;;;;;;3.03;100.00;102427.13;4990480;28;20494;-79
2024/01/29 01:46:56;;;;;;;9.95;8.23;;;;;;;3.00;100.00;102425.44;4989253;28;20033;-77
2024/01/29 01:49:23;;;;;;;9.95;7.93;;;;;;;3.01;100.00;102421.97;4987785;28;20037;-80
2024/01/29 01:51:49;;;;;;;9.43;8.00;;;;;;;3.01;100.00;102421.97;4991952;28;20022;-81
2024/01/29 01:54:16;;;;;;;11.18;8.15;;;;;;;2.97;100.00;102424.66;4989234;28;20078;-79
2024/01/29 01:56:42;;;;;;;10.90;7.95;;;;;;;3.00;100.00;102433.25;4991576;28;20727;-80
2024/01/29 01:59:10;;;;;;;10.20;7.97;;;;;;;2.96;100.00;102429.00;4992297;28;20514;-79
2024/01/29 02:01:35;;;;;;;11.23;8.50;;;;;;;3.01;100.00;102424.56;4972666;28;20038;-80
2024/01/29 02:04:01;;;;;;;10.50;7.43;;;;;;;3.00;100.00;102430.66;4991038;28;20037;-79
2024/01/29 02:06:26;;;;;;;9.73;7.93;;;;;;;3.01;100.00;102418.50;4990636;28;20026;-80
2024/01/29 02:08:52;;;;;;;9.32;7.88;;;;;;;3.01;100.00;102437.56;4974081;28;20119;-79
2024/01/29 02:11:17;;;;;;;9.20;7.70;;;;;;;3.01;100.00;102428.91;4992070;28;20102;-81
2024/01/29 02:13:43;;;;;;;10.52;7.93;;;;;;;3.00;100.00;102424.59;4987786;28;20500;-81
2024/01/29 02:16:08;;;;;;;9.38;8.00;;;;;;;2.98;100.00;102427.22;4956327;28;20110;-81
2024/01/29 02:18:33;;;;;;;10.18;7.53;;;;;;;2.99;100.00;102423.72;4972628;28;20033;-79
2024/01/29 02:20:59;;;;;;;8.55;7.65;;;;;;;3.02;100.00;102423.69;4990669;28;20038;-81
2024/01/29 02:23:25;;;;;;;10.45;7.72;;;;;;;3.05;100.00;102422.75;4991819;28;20022;-79
2024/01/29 02:25:50;;;;;;;9.35;7.53;;;;;;;3.04;100.00;102421.91;4987184;28;20124;-79
2024/01/29 02:28:16;;;;;;;10.27;7.63;;;;;;;3.06;100.00;102420.13;4973828;28;20027;-79
2024/01/29 02:30:41;;;;;;;9.98;7.88;;;;;;;3.10;100.00;102420.94;4986147;28;20486;-79
2024/01/29 02:33:06;;;;;;;9.10;7.03;;;;;;;3.09;100.00;102420.09;4986505;28;20208;-79
2024/01/29 02:35:32;;;;;;;11.02;7.85;;;;;;;3.07;100.00;102424.44;4988110;28;20037;-80
2024/01/29 02:37:58;;;;;;;8.95;7.30;;;;;;;3.08;100.00;102426.16;4989644;28;20205;-79
2024/01/29 02:40:23;;;;;;;9.80;7.18;;;;;;;3.06;100.00;102420.13;4992319;28;20026;-79
2024/01/29 02:42:49;;;;;;;8.70;7.05;;;;;;;3.05;100.00;102418.41;4989671;28;20037;-81
2024/01/29 02:45:14;;;;;;;8.77;7.57;;;;;;;3.04;100.00;102426.25;4990435;28;20038;-79
2024/01/29 02:47:39;;;;;;;9.18;7.60;;;;;;;3.01;100.00;102429.75;4986754;28;20038;-79
2024/01/29 02:50:05;;;;;;;8.50;7.53;;;;;;;2.95;100.00;102437.66;4990240;28;20483;-76
2024/01/29 02:52:30;;;;;;;9.32;7.30;;;;;;;2.96;100.00;102417.72;4989569;28;20038;-79
2024/01/29 02:54:56;;;;;;;8.98;7.53;;;;;;;2.93;100.00;102434.25;4986669;28;20026;-79
2024/01/29 02:57:23;;;;;;;10.43;7.43;;;;;;;2.92;100.00;102436.88;4989393;28;20046;-79
2024/01/29 02:59:51;;;;;;;9.18;7.65;;;;;;;2.90;100.00;102429.09;4991708;28;20074;-79
2024/01/29 03:02:16;;;;;;;8.82;6.97;;;;;;;2.92;100.00;102416.06;4990375;28;20026;-79
2024/01/29 03:04:42;;;;;;;9.60;7.50;;;;;;;2.92;100.00;102419.53;4990880;28;20104;-79
2024/01/29 03:07:07;;;;;;;8.32;7.45;;;;;;;2.94;100.00;102417.75;4993480;28;20105;-79
2024/01/29 03:09:32;;;;;;;8.43;7.10;;;;;;;2.92;100.00;102416.94;4991047;28;20040;-80
2024/01/29 03:11:59;;;;;;;8.77;7.40;;;;;;;2.88;100.00;102424.81;4988811;28;20076;-79
2024/01/29 03:14:25;;;;;;;9.68;7.13;;;;;;;2.90;100.00;102429.09;4986488;28;20101;-80
2024/01/29 03:16:52;;;;;;;7.63;6.78;;;;;;;2.88;100.00;102424.81;4992172;28;20034;-79
2024/01/29 03:19:20;;;;;;;7.88;6.90;;;;;;;2.89;100.00;102421.31;4988059;28;20023;-81
2024/01/29 03:21:46;;;;;;;8.85;7.28;;;;;;;2.87;100.00;102418.75;4973115;28;20058;-81
2024/01/29 03:24:13;;;;;;;9.52;7.07;;;;;;;2.90;100.00;102415.25;4973426;28;20053;-80
2024/01/29 03:26:39;;;;;;;9.43;7.43;;;;;;;2.86;100.00;102419.63;4990945;28;20026;-79
2024/01/29 03:29:04;;;;;;;8.95;7.07;;;;;;;2.89;100.00;102416.97;4988552;28;20550;-81
2024/01/29 03:31:30;;;;;;;9.32;7.43;;;;;;;2.90;100.00;102413.50;4992321;28;20077;-79
2024/01/29 03:33:56;;;;;;;8.45;7.30;;;;;;;2.91;100.00;102428.22;4993975;28;20097;-79
2024/01/29 03:36:21;;;;;;;8.40;7.10;;;;;;;2.85;100.00;102419.66;4991552;28;20034;-81
2024/01/29 03:38:53;;;;;;;9.05;6.57;;;;;;;2.89;100.00;102429.13;4991198;28;20092;-79
2024/01/29 03:41:19;;;;;;;10.07;6.97;;;;;;;2.86;100.00;102435.22;4992649;28;20081;-80
2024/01/29 03:43:45;;;;;;;8.60;7.25;;;;;;;2.84;100.00;102434.41;4991258;28;20038;-81
2024/01/29 03:46:10;;;;;;;10.75;7.43;;;;;;;2.87;100.00;102436.94;4986896;28;20108;-80
2024/01/29 03:48:35;;;;;;;9.70;7.40;;;;;;;2.85;100.00;102430.91;4987961;28;20029;-80
2024/01/29 03:51:01;;;;;;;7.95;6.93;;;;;;;2.88;100.00;102435.19;4990158;28;20026;-80
2024/01/29 03:53:28;;;;;;;9.45;7.10;;;;;;;2.81;100.00;102439.66;4988912;28;20113;-79
2024/01/29 03:55:55;;;;;;;8.85;7.15;;;;;;;2.84;100.00;102442.19;4984975;28;20081;-80
2024/01/29 03:58:21;;;;;;;9.68;7.45;;;;;;;2.83;100.00;102448.28;4985885;28;20022;-79
2024/01/29 04:00:46;;;;;;;8.80;7.03;;;;;;;2.81;100.00;102439.66;4984533;28;20383;-81
2024/01/29 04:03:11;;;;;;;8.98;7.03;;;;;;;2.83;100.00;102440.47;4985118;28;20027;-80
2024/01/29 04:05:37;;;;;;;8.77;7.65;;;;;;;2.84;100.00;102439.59;4982491;28;20044;-79
2024/01/29 04:08:03;;;;;;;9.13;7.38;;;;;;;2.84;100.00;102442.19;4989734;28;20536;-80
2024/01/29 04:10:28;;;;;;;9.43;7.10;;;;;;;2.85;100.00;102441.31;4989470;28;20034;-80
2024/01/29 04:12:54;;;;;;;9.77;7.20;;;;;;;2.82;100.00;102446.56;4972341;28;20027;-80
2024/01/29 04:15:19;;;;;;;8.40;7.03;;;;;;;2.80;100.00;102438.78;4964950;28;20110;-80
2024/01/29 04:17:44;;;;;;;8.68;7.05;;;;;;;2.78;100.00;102439.66;4990460;28;20034;-79
2024/01/29 04:20:11;;;;;;;8.80;7.20;;;;;;;2.82;100.00;102446.56;4989463;28;20041;-79
2024/01/29 04:22:37;;;;;;;10.40;7.30;;;;;;;2.80;100.00;102449.19;4990380;28;20434;-79
2024/01/29 04:25:04;;;;;;;10.10;7.70;;;;;;;2.80;100.00;102446.59;4984592;28;20019;-81
2024/01/29 04:27:29;;;;;;;10.65;7.65;;;;;;;2.79;100.00;102449.19;4970744;28;20030;-79
2024/01/29 04:29:55;;;;;;;9.32;7.07;;;;;;;2.78;100.00;102444.88;4990060;28;20041;-79
2024/01/29 04:32:20;;;;;;;8.35;7.25;;;;;;;2.76;100.00;102444.03;4988443;28;20137;-80
2024/01/29 04:34:50;;;;;;;8.43;7.43;;;;;;;2.74;100.00;102448.41;4989692;28;20089;-79
2024/01/29 04:37:15;;;;;;;9.15;7.20;;;;;;;2.71;100.00;102448.44;4993686;28;20026;-79
2024/01/29 04:39:41;;;;;;;9.48;7.10;;;;;;;2.69;100.00;102452.81;4993780;28;20077;-80
2024/01/29 04:42:07;;;;;;;9.90;7.45;;;;;;;2.65;100.00;102453.75;4989058;28;20022;-79
2024/01/29 04:44:32;;;;;;;8.02;7.10;;;;;;;2.60;100.00;102455.56;4991606;28;20534;-81
2024/01/29 04:46:58;;;;;;;8.50;7.22;;;;;;;2.57;100.00;102447.81;4985871;28;20069;-80
2024/01/29 04:49:24;;;;;;;9.95;6.97;;;;;;;2.49;100.00;102461.78;4975611;28;20038;-79
2024/01/29 04:51:49;;;;;;;9.10;7.35;;;;;;;2.46;100.00;102459.22;4991012;28;20391;-78
2024/01/29 04:54:20;;;;;;;8.07;7.28;;;;;;;2.43;100.00;102459.28;4992671;28;20355;-80
2024/01/29 04:56:45;;;;;;;9.10;7.43;;;;;;;2.41;100.00;102465.38;4988197;28;20539;-78
2024/01/29 04:59:11;;;;;;;8.18;6.95;;;;;;;2.37;100.00;102463.66;4988437;28;20129;-80
2024/01/29 05:01:36;;;;;;;9.77;6.85;;;;;;;2.30;100.00;102457.72;4992507;28;20026;-78
2024/01/29 05:04:01;;;;;;;9.50;6.93;;;;;;;2.33;100.00;102457.66;4979447;28;20034;-78
2024/01/29 05:06:27;;;;;;;9.73;7.40;;;;;;;2.32;100.00;102455.94;4994005;28;20026;-78
2024/01/29 05:08:52;;;;;;;7.95;7.15;;;;;;;2.35;100.00;102455.03;4991547;28;20078;-78
2024/01/29 05:11:17;;;;;;;8.00;7.20;;;;;;;2.37;100.00;102453.28;4991911;28;20034;-78
2024/01/29 05:13:43;;;;;;;8.80;7.07;;;;;;;2.36;100.00;102448.97;4993675;28;20031;-79
2024/01/29 05:16:12;;;;;;;8.32;7.35;;;;;;;2.34;100.00;102464.56;4974345;28;20425;-78
2024/01/29 05:18:38;;;;;;;8.50;7.22;;;;;;;2.35;100.00;102452.44;4993453;28;20109;-78
2024/01/29 05:21:04;;;;;;;8.98;7.18;;;;;;;2.39;100.00;102457.56;4992539;28;20118;-77
2024/01/29 05:23:29;;;;;;;8.60;7.43;;;;;;;2.38;100.00;102455.84;4993120;28;20080;-78
2024/01/29 05:25:55;;;;;;;9.10;7.35;;;;;;;2.37;100.00;102448.94;4991740;28;20026;-77
2024/01/29 05:28:20;;;;;;;7.53;6.75;;;;;;;2.40;100.00;102454.13;4991039;28;20085;-78
2024/01/29 05:30:45;;;;;;;8.18;7.38;;;;;;;2.41;100.00;102455.84;4991943;28;20030;-78
2024/01/29 05:33:11;;;;;;;7.80;6.97;;;;;;;2.43;100.00;102454.06;4990481;28;20124;-80
2024/01/29 05:35:37;;;;;;;8.68;7.32;;;;;;;2.42;100.00;102452.38;4993330;28;20097;-78
2024/01/29 05:38:03;;;;;;;8.63;7.30;;;;;;;2.42;100.00;102454.97;4991515;28;20558;-78
2024/01/29 05:40:28;;;;;;;7.53;6.47;;;;;;;2.46;100.00;102453.19;4992376;28;20033;-78
2024/01/29 05:42:54;;;;;;;9.13;7.20;;;;;;;2.46;100.00;102454.03;4973418;28;20117;-78
2024/01/29 05:45:20;;;;;;;9.45;7.65;;;;;;;2.48;100.00;102456.59;4991479;28;20516;-78
2024/01/29 05:47:46;;;;;;;9.23;7.00;;;;;;;2.49;100.00;102453.97;4984570;28;20023;-78
2024/01/29 05:50:11;;;;;;;8.23;7.00;;;;;;;2.55;100.00;102462.56;4990305;28;20046;-78
2024/01/29 05:52:36;;;;;;;7.75;6.95;;;;;;;2.61;100.00;102457.28;4989496;28;20230;-78
2024/01/29 05:55:02;;;;;;;8.95;6.85;;;;;;;2.61;100.00;102457.28;4991666;28;20026;-78
2024/01/29 05:57:28;;;;;;;8.65;6.90;;;;;;;2.60;100.00;102460.75;4990538;28;20027;-80
2024/01/29 05:59:54;;;;;;;7.63;6.93;;;;;;;2.61;100.00;102478.91;4987589;28;20467;-78
2024/01/29 06:02:19;;;;;;;7.80;7.00;;;;;;;2.61;100.00;102473.72;4986268;28;20104;-78
2024/01/29 06:04:44;;;;;;;8.25;6.88;;;;;;;2.62;100.00;102470.25;4991776;28;20026;-78
2024/01/29 06:07:10;;;;;;;7.50;6.80;;;;;;;2.62;100.00;102461.59;4989922;28;20010;-78
2024/01/29 06:09:35;;;;;;;7.90;7.07;;;;;;;2.61;100.00;102467.66;4990478;28;20113;-78
2024/01/29 06:12:01;;;;;;;10.05;7.28;;;;;;;2.65;100.00;102464.13;4987621;28;20030;-79
2024/01/29 06:14:28;;;;;;;10.25;7.00;;;;;;;2.66;100.00;102484.03;4989378;28;20027;-78
2024/01/29 06:16:57;;;;;;;8.90;7.35;;;;;;;2.69;100.00;102479.66;4987470;28;20054;-79
2024/01/29 06:19:23;;;;;;;8.35;7.07;;;;;;;2.76;100.00;102472.63;4989894;28;20050;-79
2024/01/29 06:21:50;;;;;;;8.48;7.18;;;;;;;2.79;100.00;102477.78;4990933;28;20041;-79
2024/01/29 06:24:15;;;;;;;9.25;7.00;;;;;;;2.81;100.00;102476.91;4990681;28;20018;-78
2024/01/29 06:26:41;;;;;;;8.73;6.63;;;;;;;2.85;100.00;102482.03;4988900;28;20030;-80
2024/01/29 06:29:07;;;;;;;8.35;6.75;;;;;;;2.83;100.00;102482.06;4991840;28;20030;-80
2024/01/29 06:31:33;;;;;;;9.43;6.97;;;;;;;2.89;100.00;102486.31;4990851;28;20066;-78
2024/01/29 06:33:58;;;;;;;8.77;7.03;;;;;;;2.90;100.00;102478.47;4988063;28;20054;-79
2024/01/29 06:36:24;;;;;;;8.57;6.53;;;;;;;2.87;100.00;102498.47;4986033;28;20062;-78
2024/01/29 06:38:50;;;;;;;9.50;7.55;;;;;;;2.85;100.00;102492.44;4980379;28;20105;-78
2024/01/29 06:41:23;;;;;;;8.73;6.82;;;;;;;2.84;100.00;102494.19;4987265;28;20027;-79
2024/01/29 06:43:49;;;;;;;9.60;7.03;;;;;;;2.86;100.00;102494.16;4984687;28;20096;-80
2024/01/29 06:46:16;;;;;;;8.45;6.88;;;;;;;2.85;100.00;102490.69;4990238;28;20120;-78
2024/01/29 06:48:41;;;;;;;8.63;7.13;;;;;;;2.87;100.00;102491.53;4985996;28;20022;-78
2024/01/29 06:51:07;;;;;;;10.88;6.88;;;;;;;2.86;100.00;102497.63;4989128;28;20251;-80
2024/01/29 06:53:33;;;;;;;7.32;6.57;;;;;;;2.85;100.00;102493.28;4990591;28;20032;-78
2024/01/29 06:55:59;;;;;;;9.88;7.15;;;;;;;2.88;100.00;102493.25;4985208;28;20041;-78
2024/01/29 06:58:25;;;;;;;8.85;7.00;;;;;;;2.88;100.00;102497.59;4987331;28;20030;-78
2024/01/29 07:00:51;;;;;;;8.43;7.03;;;;;;;2.87;100.00;102496.72;4989038;28;20498;-79
2024/01/29 07:03:18;;;;;;;8.48;7.22;;;;;;;2.87;100.00;102501.94;4976861;28;20667;-78
2024/01/29 07:05:50;;;;;;;7.90;6.82;;;;;;;2.90;100.00;102522.69;4989721;28;20041;-79
2024/01/29 07:08:18;;;;;;;9.73;7.70;;;;;;;2.87;100.00;102512.31;4990236;28;20022;-79
2024/01/29 07:10:44;;;;;;;8.32;7.13;;;;;;;2.90;100.00;102517.47;4990477;28;20034;-79
2024/01/29 07:13:10;;;;;;;9.25;7.25;;;;;;;2.89;100.00;102510.56;4988841;28;20390;-80
2024/01/29 07:15:35;;;;;;;7.65;6.85;;;;;;;2.89;100.00;102520.97;4991009;28;20022;-80
2024/01/29 07:18:00;;;;;;;8.00;7.10;;;;;;;2.90;100.00;102522.69;4990433;28;20404;-80
2024/01/29 07:20:29;;;;;;;8.10;7.30;;;;;;;2.87;100.00;102533.13;4991092;28;20475;-80
2024/01/29 07:22:58;;;;;;;7.90;6.75;;;;;;;2.86;100.00;102531.41;4972225;28;20030;-80
2024/01/29 07:25:26;;;;;;;8.75;7.30;;;;;;;2.87;100.00;102538.31;4984087;28;20028;-80
2024/01/29 07:27:51;;;;;;;9.43;7.72;;;;;;;2.86;100.00;102540.94;4990136;28;20063;-80
2024/01/29 07:30:19;;;;;;;9.95;7.65;;;;;;;2.82;100.00;102543.59;4990810;28;20026;-79
2024/01/29 07:32:45;;;;;;;7.93;7.13;;;;;;;2.85;100.00;102540.09;4991039;28;20410;-80
2024/01/29 07:35:10;;;;;;;9.13;7.32;;;;;;;2.85;100.00;102544.44;4990749;28;20413;-79
2024/01/29 07:37:35;;;;;;;8.32;7.53;;;;;;;2.86;100.00;102551.34;4973112;28;20034;-79
2024/01/29 07:40:03;;;;;;;7.95;7.05;;;;;;;2.84;100.00;102543.56;4988922;28;20454;-81
2024/01/29 07:42:28;;;;;;;8.85;7.50;;;;;;;2.86;100.00;102547.00;4991108;28;20419;-80
2024/01/29 07:44:54;;;;;;;8.98;7.38;;;;;;;2.89;100.00;102546.94;4989052;28;20018;-78
2024/01/29 07:47:19;;;;;;;9.90;7.82;;;;;;;2.88;100.00;102545.25;4991945;28;20121;-77
2024/01/29 07:49:45;;;;;;;8.82;7.20;;;;;;;2.93;100.00;102553.81;4989490;28;20022;-78
2024/01/29 07:52:10;;;;;;;8.75;7.72;;;;;;;2.96;100.00;102555.50;4989464;28;20030;-78
2024/01/29 07:54:35;;;;;;;8.70;7.80;;;;;;;2.99;100.00;102545.06;4989336;28;20034;-80
2024/01/29 07:57:01;;;;;;;9.77;7.80;;;;;;;3.04;100.00;102551.91;4988231;28;20061;-79
2024/01/29 07:59:27;;;;;;;8.02;7.10;;;;;;;3.08;100.00;102552.72;4971805;28;20030;-79
2024/01/29 08:01:52;;;;;;;9.60;7.57;;;;;;;3.13;100.00;102549.16;4988863;28;20045;-79
2024/01/29 08:04:18;;;;;;;9.02;7.65;;;;;;;3.23;100.00;102554.25;4989361;28;20471;-80
2024/01/29 08:06:43;;;;;;;10.07;8.13;;;;;;;3.29;100.00;102549.78;4987157;28;20042;-78
2024/01/29 08:09:09;;;;;;;8.20;7.38;;;;;;;3.41;100.00;102551.31;4990132;28;20069;-80
2024/01/29 08:11:35;;;;;;;8.25;7.45;;;;;;;3.47;100.00;102553.81;4989436;28;20037;-80
2024/01/29 08:14:00;;;;;;;8.60;7.78;;;;;;;3.54;100.00;102555.44;4987641;28;20034;-78
2024/01/29 08:16:25;;;;;;;10.77;7.68;;;;;;;3.64;100.00;102557.00;4984041;28;20501;-80
2024/01/29 08:18:51;;;;;;;9.55;7.45;;;;;;;3.71;100.00;102555.16;4988385;28;20553;-79
2024/01/29 08:21:17;;;;;;;10.73;7.60;;;;;;;3.77;100.00;102561.09;4988463;28;20113;-78
2024/01/29 08:23:43;;;;;;;9.70;8.10;;;;;;;3.89;100.00;102569.56;5002789;28;20014;-79
2024/01/29 08:26:09;;;;;;;10.20;7.65;;;;;;;3.95;100.00;102567.69;4994818;28;20081;-79
2024/01/29 08:28:34;;;;;;;9.63;7.80;;;;;;;4.04;100.00;102564.94;4989338;28;20022;-80
2024/01/29 08:31:00;;;;;;;11.52;8.52;;;;;;;4.12;100.00;102564.78;4992881;28;20040;-79
2024/01/29 08:33:27;;;;;;;9.35;7.63;;;;;;;4.18;100.00;102563.81;4979484;28;20054;-79
2024/01/29 08:35:52;;;;;;;8.10;7.05;;;;;;;4.22;100.00;102558.50;4974090;28;20037;-79
2024/01/29 08:38:18;;;;;;;10.00;7.85;;;;;;;4.28;100.00;102563.59;4970793;28;20480;-80
2024/01/29 08:40:44;;;;;;;9.88;7.68;;;;;;;4.33;100.00;102558.28;4984395;28;20117;-80
2024/01/29 08:43:11;;;;;;;11.18;7.60;;;;;;;4.35;100.00;102567.78;4988255;28;20022;-80
2024/01/29 08:45:36;;;;;;;8.25;7.35;;;;;;;4.41;100.00;102564.22;4986251;28;20521;-81
2024/01/29 08:48:03;;;;;;;13.52;7.45;;;;;;;4.44;100.00;102558.09;4987477;28;20049;-81
2024/01/29 08:50:30;;;;;;;8.65;7.63;;;;;;;4.50;100.00;102563.16;4993612;28;20023;-80
2024/01/29 08:52:55;;;;;;;13.90;7.63;;;;;;;4.53;100.00;102556.13;4989055;28;20526;-80
2024/01/29 08:55:21;;;;;;;9.02;7.63;;;;;;;4.55;100.00;102551.75;4982152;28;20061;-80
2024/01/29 08:57:46;;;;;;;9.18;7.65;;;;;;;4.57;100.00;102554.31;4970203;28;20030;-80
2024/01/29 09:00:12;;;;;;;9.35;7.45;;;;;;;4.58;100.00;102556.88;4988822;28;20035;-81
2024/01/29 09:02:38;;;;;;;8.98;7.80;;;;;;;4.61;100.00;102561.19;4988174;28;20517;-81
2024/01/29 09:05:03;;;;;;;11.70;8.48;;;;;;;4.65;100.00;102550.66;4989676;28;20019;-82
2024/01/29 09:07:29;;;;;;;9.60;7.03;;;;;;;4.73;100.00;102560.91;4987696;28;20030;-80
2024/01/29 09:09:54;;;;;;;10.70;7.95;;;;;;;4.77;100.00;102557.31;5000216;28;20438;-80
2024/01/29 09:12:19;;;;;;;10.13;7.90;;;;;;;4.80;100.00;102552.03;4989995;28;20049;-80
2024/01/29 09:14:45;;;;;;;9.90;7.85;;;;;;;4.83;100.00;102557.22;4990483;28;20528;-81
2024/01/29 09:17:10;;;;;;;9.52;7.70;;;;;;;4.88;100.00;102554.50;4991310;28;20326;-80
2024/01/29 09:19:35;;;;;;;9.95;7.90;;;;;;;4.92;100.00;102557.00;4994503;28;20027;-80
2024/01/29 09:22:01;;;;;;;9.52;7.53;;;;;;;4.96;100.00;102550.81;4990968;28;20026;-82
2024/01/29 09:24:26;;;;;;;9.77;7.93;;;;;;;5.00;100.00;102552.47;4993655;28;20360;-80
2024/01/29 09:26:51;;;;;;;8.13;7.32;;;;;;;5.03;100.00;102557.59;4991846;28;20165;-80
2024/01/29 09:29:17;;;;;;;8.43;7.50;;;;;;;5.07;100.00;102560.13;4992508;28;20041;-81
2024/01/29 09:31:43;;;;;;;9.45;7.47;;;;;;;5.13;100.00;102550.41;4991526;28;20451;-81
2024/01/29 09:34:08;;;;;;;9.85;7.20;;;;;;;5.18;100.00;102560.72;4992614;28;20035;-81
2024/01/29 09:36:34;;;;;;;8.95;7.45;;;;;;;5.26;100.00;102566.66;4992293;28;20064;-81
2024/01/29 09:39:00;;;;;;;8.65;7.47;;;;;;;5.36;100.00;102562.91;4990190;28;20064;-81
2024/01/29 09:41:31;;;;;;;8.70;7.75;;;;;;;5.47;100.00;102568.72;4992876;28;20061;-76
2024/01/29 09:43:58;;;;;;;9.07;7.65;;;;;;;5.56;100.00;102571.09;4987797;28;20084;-78
2024/01/29 09:46:26;;;;;;;12.35;8.02;;;;;;;5.66;100.00;102572.59;4992793;28;20034;-76
2024/01/29 09:48:51;;;;;;;9.23;7.28;;;;;;;5.75;100.00;102565.41;4991053;28;20038;-79
2024/01/29 09:51:19;;;;;;;8.38;7.50;;;;;;;5.85;100.00;102569.47;4990821;28;20026;-79
2024/01/29 09:53:44;;;;;;;8.70;7.53;;;;;;;5.93;100.00;102570.16;4992480;28;20028;-76
2024/01/29 09:56:10;;;;;;;8.00;7.13;;;;;;;6.00;100.00;102574.31;4973967;28;20026;-79
2024/01/29 09:58:35;;;;;;;9.18;7.20;;;;;;;6.09;100.00;102574.09;4984913;28;20463;-79
2024/01/29 10:01:03;;;;;;;9.48;7.55;;;;;;;6.16;100.00;102578.25;4984730;28;20034;-79
2024/01/29 10:03:33;;;;;;;8.95;7.35;;;;;;;6.25;100.00;102583.22;4989356;28;20033;-76
2024/01/29 10:05:59;;;;;;;9.77;7.93;;;;;;;6.36;100.00;102584.66;4989547;28;20479;-76
2024/01/29 10:08:24;;;;;;;10.73;7.82;;;;;;;6.36;100.00;102584.66;4973606;28;20033;-76
2024/01/29 10:10:51;;;;;;;10.32;7.63;;;;;;;6.41;100.00;102588.03;4991259;28;20034;-79
2024/01/29 10:13:16;;;;;;;9.25;8.00;;;;;;;6.50;100.00;102583.38;4991206;28;20032;-77
2024/01/29 10:15:45;;;;;;;10.18;8.32;;;;;;;6.54;100.00;102586.75;4989153;28;20030;-76
2024/01/29 10:18:11;;;;;;;12.60;8.98;;;;;;;6.61;100.00;102590.91;4989005;28;20446;-76
2024/01/29 10:20:36;;;;;;;8.88;7.70;;;;;;;6.70;100.00;102592.38;4989206;28;20073;-76
2024/01/29 10:23:02;;;;;;;10.23;8.35;;;;;;;6.77;100.00;102596.53;4986177;28;20026;-76
2024/01/29 10:25:29;;;;;;;11.25;8.00;;;;;;;6.78;100.00;102599.09;4970557;28;20019;-76
2024/01/29 10:28:11;;;;;;;15.57;8.63;;;;;;;6.87;100.00;102598.84;4953651;28;20023;-77
2024/01/29 10:30:41;;;;;;;9.85;8.23;;;;;;;6.94;100.00;102606.50;4972609;28;20042;-77
2024/01/29 10:33:08;;;;;;;10.35;8.18;;;;;;;6.98;100.00;102605.50;4974721;28;20918;-80
2024/01/29 10:35:33;;;;;;;9.98;8.20;;;;;;;7.05;100.00;102597.41;4974031;28;20034;-80
2024/01/29 10:38:04;;;;;;;9.23;8.07;;;;;;;7.09;100.00;102598.16;4991342;28;20030;-79
2024/01/29 10:40:31;;;;;;;9.60;8.07;;;;;;;7.18;100.00;102603.09;4991996;28;20025;-77
2024/01/29 10:43:01;;;;;;;8.48;7.57;;;;;;;7.26;100.00;102595.88;4991442;28;20026;-77
2024/01/29 10:45:27;;;;;;;9.65;8.23;;;;;;;7.32;100.00;102603.53;4991196;28;20018;-79
2024/01/29 10:47:58;;;;;;;9.98;8.63;;;;;;;7.38;100.00;102598.09;4989469;28;20505;-80
2024/01/29 10:50:23;;;;;;;9.43;7.82;;;;;;;7.48;100.00;102596.88;4993331;28;20088;-77
2024/01/29 10:52:53;;;;;;;9.52;8.55;;;;;;;7.58;100.00;102596.56;4991351;28;20030;-77
2024/01/29 10:55:20;;;;;;;11.30;8.18;;;;;;;7.65;100.00;102592.88;4984969;28;20086;-79
2024/01/29 10:57:47;;;;;;;9.30;8.32;;;;;;;7.69;100.00;102592.72;4987287;28;20061;-78
2024/01/29 11:00:18;;;;;;;11.60;8.20;;;;;;;7.83;100.00;102597.47;4969181;28;20049;-77
2024/01/29 11:02:45;;;;;;;10.48;7.93;;;;;;;7.93;100.00;102591.00;4990532;28;20085;-77
2024/01/29 11:05:12;;;;;;;9.50;8.20;;;;;;;8.01;100.00;102594.22;4993878;28;20545;-78
2024/01/29 11:07:41;;;;;;;8.85;7.95;;;;;;;8.10;100.00;102591.28;4992231;28;20390;-77
2024/01/29 11:10:16;;;;;;;10.10;8.27;;;;;;;8.22;100.00;102596.97;4990854;28;20802;-78
2024/01/29 11:12:43;;;;;;;9.82;8.45;;;;;;;8.28;100.00;102588.88;4992619;28;20030;-79
2024/01/29 11:15:09;;;;;;;9.32;7.97;;;;;;;8.42;100.00;102597.16;4993481;28;20109;-77
2024/01/29 11:17:35;;;;;;;9.52;8.10;;;;;;;8.51;100.00;102596.81;4993094;28;20045;-77